createdAt,value
2022-08-04T00:00:14.055Z,36.20
2022-08-04T00:02:58.266Z,36.20
2022-08-04T00:06:03.388Z,36.00
2022-08-04T00:08:48.612Z,35.90
2022-08-04T00:11:21.788Z,36.50
2022-08-04T00:14:03.306Z,36.60
2022-08-04T00:16:38.600Z,36.60
2022-08-04T00:19:11.947Z,36.70
2022-08-04T00:21:42.004Z,37.50
2022-08-04T00:24:12.987Z,36.90
2022-08-04T00:26:41.133Z,37.60
2022-08-04T00:29:08.120Z,37.10
2022-08-04T00:31:54.797Z,37.30
2022-08-04T00:34:28.619Z,37.60
2022-08-04T00:36:56.987Z,37.70
2022-08-04T00:39:24.697Z,37.80
2022-08-04T00:42:31.985Z,37.80
2022-08-04T00:45:29.559Z,37.80
2022-08-04T00:48:31.236Z,38.00
2022-08-04T00:51:16.300Z,38.10
2022-08-04T00:54:06.405Z,38.30
2022-08-04T00:57:02.896Z,38.20
2022-08-04T00:59:37.486Z,38.10
2022-08-04T01:02:25.538Z,38.50
2022-08-04T01:05:04.225Z,38.70
2022-08-04T01:07:44.029Z,38.90
2022-08-04T01:10:22.279Z,38.90
2022-08-04T01:12:58.075Z,38.90
2022-08-04T01:16:00.055Z,38.90
2022-08-04T01:18:44.393Z,38.80
2022-08-04T01:21:29.077Z,38.80
2022-08-04T01:24:20.801Z,38.80
2022-08-04T01:27:04.090Z,38.80
2022-08-04T01:29:55.645Z,38.90
2022-08-04T01:32:34.364Z,39.00
2022-08-04T01:35:46.888Z,39.20
2022-08-04T01:38:24.946Z,39.50
2022-08-04T01:40:59.353Z,39.50
2022-08-04T01:43:28.747Z,39.50
2022-08-04T01:46:01.353Z,40.20
2022-08-04T01:48:28.986Z,39.70
2022-08-04T01:51:03.498Z,39.70
2022-08-04T01:53:33.784Z,40.00
2022-08-04T01:56:02.626Z,40.10
2022-08-04T01:58:30.914Z,40.30
2022-08-04T02:01:08.306Z,40.30
2022-08-04T02:04:22.099Z,40.60
2022-08-04T02:06:34.826Z,40.60
2022-08-04T02:09:28.796Z,40.80
2022-08-04T02:12:04.936Z,41.60
2022-08-04T02:14:45.572Z,41.30
2022-08-04T02:17:14.738Z,41.50
2022-08-04T02:19:53.363Z,41.70
2022-08-04T02:22:24.971Z,41.80
2022-08-04T02:25:02.004Z,41.80
2022-08-04T02:27:59.120Z,41.90
2022-08-04T02:30:41.723Z,42.00
2022-08-04T02:33:12.779Z,42.10
2022-08-04T02:35:42.617Z,42.30
2022-08-04T02:38:28.167Z,42.50
2022-08-04T02:40:56.671Z,42.50
2022-08-04T02:43:50.743Z,42.70
2022-08-04T02:46:22.030Z,42.70
2022-08-04T02:48:50.848Z,42.70
2022-08-04T02:51:30.231Z,42.70
2022-08-04T02:53:59.239Z,42.60
2022-08-04T02:56:29.349Z,42.60
2022-08-04T02:59:08.963Z,42.60
2022-08-04T03:01:36.770Z,42.60
2022-08-04T03:04:25.026Z,43.20
2022-08-04T03:07:14.516Z,42.60
2022-08-04T03:09:51.025Z,42.70
2022-08-04T03:12:43.354Z,43.10
2022-08-04T03:15:21.778Z,43.30
2022-08-04T03:18:16.411Z,43.50
2022-08-04T03:21:04.915Z,43.50
2022-08-04T03:23:37.687Z,43.50
2022-08-04T03:26:19.586Z,43.50
2022-08-04T03:29:13.908Z,43.70
2022-08-04T03:32:27.399Z,43.70
2022-08-04T03:34:59.967Z,43.80
2022-08-04T03:37:51.384Z,43.90
2022-08-04T03:40:20.852Z,44.60
2022-08-04T03:42:53.357Z,44.10
2022-08-04T03:45:41.700Z,44.30
2022-08-04T03:48:45.061Z,44.30
2022-08-04T03:51:48.487Z,44.20
2022-08-04T03:54:39.626Z,44.30
2022-08-04T03:57:41.880Z,44.40
2022-08-04T04:00:15.720Z,44.30
2022-08-04T04:03:02.689Z,44.50
2022-08-04T04:05:37.367Z,44.50
2022-08-04T04:08:48.053Z,44.70
2022-08-04T04:11:57.186Z,44.70
2022-08-04T04:14:55.621Z,44.80
2022-08-04T04:17:52.569Z,44.80
2022-08-04T04:20:39.506Z,44.80
2022-08-04T04:23:31.763Z,44.80
2022-08-04T04:26:30.783Z,44.80
2022-08-04T04:29:06.523Z,44.90
2022-08-04T04:31:42.504Z,45.10
2022-08-04T04:34:46.656Z,45.20
2022-08-04T04:37:35.380Z,45.20
2022-08-04T04:40:15.508Z,45.30
2022-08-04T04:43:10.953Z,45.50
2022-08-04T04:46:23.731Z,45.50
2022-08-04T04:49:20.633Z,45.50
2022-08-04T04:52:00.328Z,45.50
2022-08-04T04:54:38.855Z,45.60
2022-08-04T04:57:13.221Z,45.70
2022-08-04T04:59:54.826Z,45.90
2022-08-04T05:02:21.555Z,45.90
2022-08-04T05:05:27.606Z,45.80
2022-08-04T05:08:43.063Z,45.90
2022-08-04T05:11:15.247Z,45.90
2022-08-04T05:14:41.789Z,45.90
2022-08-04T05:17:23.779Z,45.80
2022-08-04T05:20:22.139Z,45.90
2022-08-04T05:22:54.825Z,46.10
2022-08-04T05:25:35.442Z,46.00
2022-08-04T05:28:16.940Z,46.20
2022-08-04T05:30:50.280Z,46.20
2022-08-04T05:33:42.995Z,46.40
2022-08-04T05:36:29.497Z,46.20
2022-08-04T05:39:05.587Z,46.30
2022-08-04T05:41:45.952Z,46.40
2022-08-04T05:44:19.119Z,46.50
2022-08-04T05:46:54.142Z,46.30
2022-08-04T05:49:23.216Z,46.20
2022-08-04T05:51:51.086Z,46.30
2022-08-04T05:54:21.058Z,46.40
2022-08-04T05:56:49.015Z,46.20
2022-08-04T05:59:16.939Z,46.10
2022-08-04T06:01:56.382Z,46.00
2022-08-04T06:04:35.924Z,46.00
2022-08-04T06:07:03.100Z,45.90
2022-08-04T06:09:31.183Z,45.80
2022-08-04T06:12:04.238Z,45.80
2022-08-04T06:14:46.809Z,45.70
2022-08-04T06:18:35.216Z,45.50
2022-08-04T06:20:18.293Z,45.40
2022-08-04T06:22:53.802Z,45.30
2022-08-04T06:25:24.879Z,45.90
2022-08-04T06:27:52.558Z,45.10
2022-08-04T06:30:20.650Z,44.80
2022-08-04T06:33:03.980Z,44.50
2022-08-04T06:35:33.747Z,44.00
2022-08-04T06:38:01.948Z,43.40
2022-08-04T06:40:33.481Z,43.20
2022-08-04T06:43:06.754Z,43.30
2022-08-04T06:45:39.855Z,43.30
2022-08-04T06:48:08.009Z,43.30
2022-08-04T06:51:26.463Z,43.30
2022-08-04T06:53:25.160Z,43.40
2022-08-04T06:55:52.885Z,43.40
2022-08-04T06:58:21.894Z,43.50
2022-08-04T07:00:49.634Z,43.50
2022-08-04T07:03:18.819Z,43.50
2022-08-04T07:05:48.059Z,43.00
2022-08-04T07:08:15.495Z,42.60
2022-08-04T07:10:42.783Z,42.90
2022-08-04T07:13:11.042Z,42.20
2022-08-04T07:15:41.253Z,41.70
2022-08-04T07:18:08.095Z,41.60
2022-08-04T07:20:36.859Z,41.30
2022-08-04T07:23:08.432Z,41.00
2022-08-04T07:25:59.571Z,40.50
2022-08-04T07:28:27.207Z,40.30
2022-08-04T07:30:56.029Z,39.30
2022-08-04T07:33:24.704Z,39.40
2022-08-04T07:36:04.693Z,39.40
2022-08-04T07:38:48.251Z,39.40
2022-08-04T07:41:37.787Z,39.50
2022-08-04T07:44:05.296Z,38.90
2022-08-04T07:46:32.383Z,38.50
2022-08-04T07:49:01.242Z,38.00
2022-08-04T07:51:28.954Z,38.00
2022-08-04T07:53:57.232Z,37.60
2022-08-04T07:56:26.153Z,37.60
2022-08-04T07:58:53.000Z,37.50
2022-08-04T08:01:20.171Z,37.50
2022-08-04T08:03:47.969Z,37.40
2022-08-04T08:06:31.184Z,37.50
2022-08-04T08:09:12.555Z,37.10
2022-08-04T08:12:37.144Z,36.50
2022-08-04T08:14:38.215Z,35.40
2022-08-04T08:17:07.751Z,35.50
2022-08-04T08:19:35.905Z,35.50
2022-08-04T08:22:04.014Z,35.40
2022-08-04T08:24:32.488Z,35.20
2022-08-04T08:27:00.430Z,35.30
2022-08-04T08:29:29.580Z,34.60
2022-08-04T08:32:01.495Z,34.70
2022-08-04T08:34:31.986Z,34.30
2022-08-04T08:37:07.806Z,33.90
2022-08-04T08:40:16.590Z,34.20
2022-08-04T08:44:03.897Z,33.40
2022-08-04T08:45:59.078Z,33.20
2022-08-04T08:48:39.918Z,33.70
2022-08-04T08:51:26.192Z,33.30
2022-08-04T08:54:04.019Z,32.30
2022-08-04T08:56:46.680Z,32.60
2022-08-04T08:59:26.525Z,32.80
2022-08-04T09:02:19.357Z,32.30
2022-08-04T09:05:07.424Z,32.40
2022-08-04T09:07:53.147Z,31.70
2022-08-04T09:10:47.932Z,31.80
2022-08-04T09:13:36.716Z,31.40
2022-08-04T09:16:36.918Z,31.80
2022-08-04T09:19:22.655Z,31.00
2022-08-04T09:22:13.476Z,30.80
2022-08-04T09:24:43.274Z,30.20
2022-08-04T09:27:18.801Z,29.90
2022-08-04T09:30:05.861Z,29.90
2022-08-04T09:33:08.645Z,29.70
2022-08-04T09:35:47.423Z,29.30
2022-08-04T09:38:21.214Z,28.90
2022-08-04T09:41:35.871Z,28.80
2022-08-04T09:44:52.724Z,28.20
2022-08-04T09:47:20.885Z,28.20
2022-08-04T09:49:58.522Z,27.70
2022-08-04T09:52:44.623Z,27.40
2022-08-04T09:55:53.675Z,27.40
2022-08-04T10:03:03.358Z,27.10
2022-08-04T10:05:43.015Z,26.90
2022-08-04T10:08:27.665Z,26.40
2022-08-04T10:11:07.989Z,26.70
2022-08-04T10:14:33.397Z,25.90
2022-08-04T10:17:31.596Z,25.60
2022-08-04T10:20:36.472Z,25.70
2022-08-04T10:23:56.613Z,25.40
2022-08-04T10:26:48.902Z,25.50
2022-08-04T10:29:39.519Z,25.20
2022-08-04T10:32:21.142Z,24.80
2022-08-04T10:35:09.036Z,24.80
2022-08-04T10:37:59.018Z,24.80
2022-08-04T10:40:49.232Z,24.90
2022-08-04T10:43:27.121Z,24.50
2022-08-04T10:46:05.545Z,24.30
2022-08-04T10:48:53.930Z,23.70
2022-08-04T10:51:29.736Z,23.00
2022-08-04T10:54:01.544Z,23.60
2022-08-04T10:56:46.551Z,23.90
2022-08-04T10:59:18.945Z,24.10
2022-08-04T11:02:02.523Z,23.90
2022-08-04T11:04:49.933Z,24.40
2022-08-04T11:07:18.235Z,24.70
2022-08-04T11:09:46.750Z,24.60
2022-08-04T11:12:26.354Z,25.20
2022-08-04T11:14:59.625Z,24.90
2022-08-04T11:17:36.855Z,25.10
2022-08-04T11:20:33.587Z,24.40
2022-08-04T11:23:08.142Z,24.50
2022-08-04T11:25:52.097Z,24.30
2022-08-04T11:29:03.429Z,24.50
2022-08-04T11:31:40.423Z,24.30
2022-08-04T11:34:13.234Z,24.30
2022-08-04T11:36:51.892Z,25.60
2022-08-04T11:39:30.659Z,25.10
2022-08-04T11:42:07.777Z,25.00
2022-08-04T11:44:43.585Z,25.10
2022-08-04T11:47:22.408Z,25.70
2022-08-04T11:49:57.946Z,25.10
2022-08-04T11:52:28.193Z,25.20
2022-08-04T11:54:57.089Z,25.20
2022-08-04T11:57:35.155Z,25.20
2022-08-04T12:00:07.422Z,25.20
2022-08-04T12:03:12.373Z,25.30
2022-08-04T12:06:03.272Z,25.30
2022-08-04T12:08:44.427Z,25.20
2022-08-04T12:11:34.790Z,25.20
2022-08-04T12:14:37.858Z,25.20
2022-08-04T12:17:06.296Z,25.10
2022-08-04T12:20:03.255Z,25.10
2022-08-04T12:22:37.047Z,25.00
2022-08-04T12:25:09.198Z,25.00
2022-08-04T12:27:50.278Z,25.30
2022-08-04T12:30:59.875Z,25.60
2022-08-04T12:33:17.653Z,26.10
2022-08-04T12:36:05.215Z,26.20
2022-08-04T12:39:00.125Z,26.30
2022-08-04T12:41:35.895Z,26.40
2022-08-04T12:44:32.668Z,26.30
2022-08-04T12:47:27.748Z,26.40
2022-08-04T12:49:59.929Z,26.90
2022-08-04T12:55:18.171Z,27.10
2022-08-04T12:57:46.892Z,27.30
2022-08-04T13:00:29.352Z,27.40
2022-08-04T13:03:10.244Z,27.60
2022-08-04T13:05:39.991Z,27.40
2022-08-04T13:08:08.097Z,27.40
2022-08-04T13:10:43.526Z,27.40
2022-08-04T13:13:24.085Z,27.30
2022-08-04T13:16:08.650Z,27.50
2022-08-04T13:18:45.912Z,27.30
2022-08-04T13:21:20.260Z,27.40
2022-08-04T13:24:19.486Z,27.60
2022-08-04T13:27:09.286Z,27.60
2022-08-04T13:29:58.280Z,27.50
2022-08-04T13:32:29.720Z,27.80
2022-08-04T13:35:00.016Z,27.80
2022-08-04T13:37:33.413Z,27.80
2022-08-04T13:40:02.145Z,28.10
2022-08-04T13:42:30.376Z,28.60
2022-08-04T13:44:59.672Z,28.60
2022-08-04T13:47:34.152Z,29.00
2022-08-04T13:50:30.670Z,29.00
2022-08-04T13:53:02.072Z,29.30
2022-08-04T13:55:35.172Z,29.40
2022-08-04T13:58:13.660Z,29.30
2022-08-04T14:00:46.241Z,29.40
2022-08-04T14:03:53.866Z,29.80
2022-08-04T14:06:25.881Z,29.80
2022-08-04T14:09:13.069Z,29.80
2022-08-04T14:12:06.720Z,29.70
2022-08-04T14:14:32.393Z,29.50
2022-08-04T14:17:16.402Z,29.60
2022-08-04T14:19:47.647Z,29.70
2022-08-04T14:22:26.971Z,30.00
2022-08-04T14:25:15.943Z,30.00
2022-08-04T14:27:45.238Z,29.90
2022-08-04T14:30:22.102Z,30.20
2022-08-04T14:34:03.894Z,29.80
2022-08-04T14:35:58.973Z,29.80
2022-08-04T14:38:49.173Z,29.60
2022-08-04T14:41:18.053Z,29.60
2022-08-04T14:44:05.124Z,29.80
2022-08-04T14:46:48.912Z,29.70
2022-08-04T14:49:15.736Z,29.80
2022-08-04T14:51:45.092Z,29.90
2022-08-04T14:54:18.061Z,29.70
2022-08-04T14:56:54.752Z,29.30
2022-08-04T14:59:22.230Z,29.20
2022-08-04T15:02:00.501Z,29.30
2022-08-04T15:04:29.377Z,28.50
2022-08-04T15:06:56.840Z,28.50
2022-08-04T15:09:24.013Z,28.50
2022-08-04T15:11:50.878Z,28.00
2022-08-04T15:14:36.654Z,27.90
2022-08-04T15:17:11.436Z,27.90
2022-08-04T15:19:39.997Z,27.90
2022-08-04T15:22:07.477Z,28.00
2022-08-04T15:24:44.386Z,28.00
2022-08-04T15:27:19.864Z,28.60
2022-08-04T15:30:00.778Z,28.70
2022-08-04T15:32:34.039Z,28.70
2022-08-04T15:35:09.154Z,28.60
2022-08-04T15:37:53.657Z,28.70
2022-08-04T15:40:33.514Z,28.50
2022-08-04T15:43:22.550Z,28.30
2022-08-04T15:46:37.057Z,28.70
2022-08-04T15:48:39.202Z,28.60
2022-08-04T15:51:14.784Z,28.50
2022-08-04T15:54:02.631Z,28.50
2022-08-04T15:56:30.248Z,28.60
2022-08-04T15:58:57.564Z,28.70
2022-08-04T16:01:24.953Z,28.60
2022-08-04T16:04:00.278Z,29.20
2022-08-04T16:06:29.135Z,28.70
2022-08-04T16:09:02.632Z,28.60
2022-08-04T16:11:32.229Z,28.60
2022-08-04T16:13:59.338Z,28.70
2022-08-04T16:16:50.261Z,29.10
2022-08-04T16:20:12.259Z,29.10
2022-08-04T16:22:41.031Z,29.20
2022-08-04T16:25:09.293Z,29.50
2022-08-04T16:27:41.456Z,29.80
2022-08-04T16:30:14.260Z,29.80
2022-08-04T16:32:46.827Z,29.90
2022-08-04T16:35:26.289Z,30.10
2022-08-04T16:38:13.189Z,30.60
2022-08-04T16:40:44.289Z,30.90
2022-08-04T16:43:16.836Z,31.30
2022-08-04T16:45:52.560Z,31.90
2022-08-04T16:48:27.527Z,31.80
2022-08-04T16:51:10.560Z,31.80
2022-08-04T16:53:59.184Z,31.80
2022-08-04T16:56:32.937Z,31.80
2022-08-04T16:59:09.755Z,31.50
2022-08-04T17:01:38.076Z,31.60
2022-08-04T17:04:05.659Z,31.70
2022-08-04T17:06:42.013Z,31.80
2022-08-04T17:09:17.570Z,31.50
2022-08-04T17:11:47.152Z,31.40
2022-08-04T17:14:20.735Z,31.10
2022-08-04T17:16:47.595Z,30.90
2022-08-04T17:19:24.521Z,30.90
2022-08-04T17:22:02.166Z,30.80
2022-08-04T17:24:30.044Z,30.60
2022-08-04T17:26:58.248Z,30.60
2022-08-04T17:29:43.644Z,30.50
2022-08-04T17:32:20.775Z,30.50
2022-08-04T17:34:53.483Z,30.50
2022-08-04T17:37:52.246Z,30.50
2022-08-04T17:40:14.243Z,30.50
2022-08-04T17:42:45.391Z,30.50
2022-08-04T17:45:50.739Z,30.70
2022-08-04T17:48:24.674Z,30.60
2022-08-04T17:50:51.996Z,30.40
2022-08-04T17:56:29.622Z,30.60
2022-08-04T17:59:56.169Z,30.80
2022-08-04T18:02:08.849Z,30.90
2022-08-04T18:05:06.212Z,31.00
2022-08-04T18:08:46.173Z,31.10
2022-08-04T18:10:52.354Z,32.00
2022-08-04T18:13:26.950Z,31.90
2022-08-04T18:16:04.352Z,32.00
2022-08-04T18:18:31.401Z,32.00
2022-08-04T18:20:59.758Z,32.00
2022-08-04T18:23:31.933Z,31.80
2022-08-04T18:26:01.695Z,32.20
2022-08-04T18:28:32.966Z,32.50
2022-08-04T18:31:01.602Z,32.90
2022-08-04T18:33:40.644Z,33.00
2022-08-04T18:36:32.795Z,33.10
2022-08-04T18:39:12.943Z,33.30
2022-08-04T18:42:01.029Z,33.50
2022-08-04T18:44:31.800Z,33.70
2022-08-04T18:47:19.652Z,34.00
2022-08-04T18:51:01.837Z,34.10
2022-08-04T18:52:33.432Z,34.40
2022-08-04T18:55:01.676Z,34.60
2022-08-04T18:57:32.382Z,34.70
2022-08-04T19:00:17.668Z,34.80
2022-08-04T19:02:47.496Z,35.10
2022-08-04T19:05:17.606Z,35.10
2022-08-04T19:08:11.176Z,35.60
2022-08-04T19:10:32.827Z,35.70
2022-08-04T19:13:01.493Z,35.60
2022-08-04T19:15:33.939Z,35.70
2022-08-04T19:18:01.963Z,35.70
2022-08-04T19:20:29.777Z,36.20
2022-08-04T19:24:29.845Z,36.60
2022-08-04T19:26:03.750Z,36.90
2022-08-04T19:28:35.522Z,37.30
2022-08-04T19:31:07.574Z,37.60
2022-08-04T19:33:58.466Z,37.60
2022-08-04T19:39:11.769Z,37.80
2022-08-04T19:45:43.716Z,37.60
2022-08-04T19:48:18.655Z,37.80
2022-08-04T19:50:46.322Z,38.00
2022-08-04T19:53:19.603Z,38.30
2022-08-04T19:55:49.995Z,38.40
2022-08-04T19:58:17.776Z,38.50
2022-08-04T20:00:51.372Z,38.50
2022-08-04T20:03:20.321Z,38.70
2022-08-04T20:05:53.546Z,38.60
2022-08-04T20:08:24.098Z,38.80
2022-08-04T20:10:52.336Z,39.10
2022-08-04T20:13:25.373Z,39.10
2022-08-04T20:15:58.841Z,39.10
2022-08-04T20:18:35.685Z,39.10
2022-08-04T20:21:03.982Z,39.30
2022-08-04T20:23:48.449Z,39.30
2022-08-04T20:26:16.946Z,39.30
2022-08-04T20:28:45.830Z,39.70
2022-08-04T20:31:18.138Z,39.70
2022-08-04T20:33:49.159Z,39.70
2022-08-04T20:36:21.000Z,39.60
2022-08-04T20:38:52.550Z,39.60
2022-08-04T20:41:19.456Z,39.80
2022-08-04T20:43:46.599Z,40.00
2022-08-04T20:46:29.651Z,39.70
2022-08-04T20:49:00.050Z,39.80
2022-08-04T20:51:31.947Z,39.70
2022-08-04T20:54:01.689Z,39.80
2022-08-04T20:56:31.054Z,40.00
2022-08-04T20:58:59.749Z,39.70
2022-08-04T21:01:29.517Z,39.80
2022-08-04T21:04:27.832Z,39.90
2022-08-04T21:06:57.985Z,39.90
2022-08-04T21:09:37.321Z,40.00
2022-08-04T21:12:10.119Z,39.90
2022-08-04T21:14:36.899Z,39.90
2022-08-04T21:17:04.122Z,39.90
2022-08-04T21:22:29.823Z,39.90
2022-08-04T21:25:00.257Z,39.90
2022-08-04T21:27:28.714Z,39.90
2022-08-04T21:29:55.622Z,39.80
2022-08-04T21:32:27.227Z,39.90
2022-08-04T21:34:57.622Z,40.00
2022-08-04T21:37:24.348Z,40.00
2022-08-04T21:40:14.580Z,40.10
2022-08-04T21:42:53.476Z,40.00
2022-08-04T21:45:20.471Z,40.00
2022-08-04T21:47:49.533Z,40.00
2022-08-04T21:50:19.677Z,39.80
2022-08-04T21:52:47.818Z,40.30
2022-08-04T21:55:15.861Z,40.70
2022-08-04T21:57:42.816Z,40.60
2022-08-04T22:00:10.800Z,40.90
2022-08-04T22:02:44.997Z,41.00
2022-08-04T22:05:11.917Z,41.00
2022-08-04T22:07:50.360Z,41.10
2022-08-04T22:10:32.151Z,41.10
2022-08-04T22:13:00.256Z,41.20
2022-08-04T22:16:03.904Z,41.10
2022-08-04T22:18:20.598Z,41.00
2022-08-04T22:20:51.870Z,41.00
2022-08-04T22:23:19.326Z,41.70
2022-08-04T22:25:55.755Z,41.30
2022-08-04T22:28:25.429Z,41.00
2022-08-04T22:30:55.488Z,40.80
2022-08-04T22:33:22.806Z,40.80
2022-08-04T22:35:50.147Z,40.90
2022-08-04T22:38:24.182Z,40.60
2022-08-04T22:41:00.548Z,40.50
2022-08-04T22:43:31.950Z,40.40
2022-08-04T22:46:01.730Z,40.30
2022-08-04T22:48:28.627Z,40.30
2022-08-04T22:50:59.558Z,40.10
2022-08-04T22:53:26.294Z,40.30
2022-08-04T22:56:07.050Z,40.20
2022-08-04T22:58:45.768Z,40.30
2022-08-04T23:01:18.065Z,40.50
2022-08-04T23:03:55.961Z,40.80
2022-08-04T23:06:25.238Z,41.10
2022-08-04T23:08:52.582Z,41.20
2022-08-04T23:11:19.600Z,41.10
2022-08-04T23:13:47.246Z,41.00
2022-08-04T23:16:15.799Z,41.00
2022-08-04T23:18:45.326Z,41.00
2022-08-04T23:21:15.305Z,41.00
2022-08-04T23:23:45.674Z,40.70
2022-08-04T23:26:28.260Z,40.30
2022-08-04T23:28:56.267Z,40.20
2022-08-04T23:31:24.627Z,40.50
2022-08-04T23:33:52.271Z,41.10
2022-08-04T23:36:29.987Z,42.50
2022-08-04T23:39:04.182Z,42.60
2022-08-04T23:41:51.404Z,43.40
2022-08-04T23:44:24.819Z,42.80
2022-08-04T23:47:00.724Z,42.90
2022-08-04T23:49:44.453Z,42.90
2022-08-04T23:52:23.082Z,42.60
2022-08-04T23:54:58.580Z,42.60
2022-08-04T23:57:31.055Z,42.50
